sensor_id;sensor_type;location;lat;lon;timestamp;P1;durP1;ratioP1;P2;durP2;ratioP2
66927;SDS011;59882;45.624;11.698;2023-12-14T00:01:13;23.90;;;20.08;;
66927;SDS011;59882;45.624;11.698;2023-12-14T00:03:39;26.87;;;21.07;;
66927;SDS011;59882;45.624;11.698;2023-12-14T00:06:07;27.30;;;21.25;;
66927;SDS011;59882;45.624;11.698;2023-12-14T00:08:33;27.60;;;20.85;;
66927;SDS011;59882;45.624;11.698;2023-12-14T00:11:02;29.77;;;22.60;;
66927;SDS011;59882;45.624;11.698;2023-12-14T00:13:32;32.38;;;23.65;;
66927;SDS011;59882;45.624;11.698;2023-12-14T00:15:58;40.97;;;24.48;;
66927;SDS011;59882;45.624;11.698;2023-12-14T00:18:24;34.58;;;22.50;;
66927;SDS011;59882;45.624;11.698;2023-12-14T00:20:50;40.23;;;24.30;;
66927;SDS011;59882;45.624;11.698;2023-12-14T00:23:16;49.78;;;26.33;;
66927;SDS011;59882;45.624;11.698;2023-12-14T00:25:41;43.27;;;23.20;;
66927;SDS011;59882;45.624;11.698;2023-12-14T00:28:07;45.03;;;24.90;;
66927;SDS011;59882;45.624;11.698;2023-12-14T00:30:33;36.10;;;21.53;;
66927;SDS011;59882;45.624;11.698;2023-12-14T00:32:58;43.33;;;20.77;;
66927;SDS011;59882;45.624;11.698;2023-12-14T00:35:24;30.67;;;20.20;;
66927;SDS011;59882;45.624;11.698;2023-12-14T00:37:50;70.33;;;23.10;;
66927;SDS011;59882;45.624;11.698;2023-12-14T00:40:15;59.83;;;24.08;;
66927;SDS011;59882;45.624;11.698;2023-12-14T00:42:41;62.57;;;23.00;;
66927;SDS011;59882;45.624;11.698;2023-12-14T00:45:06;54.20;;;24.40;;
66927;SDS011;59882;45.624;11.698;2023-12-14T00:47:32;48.83;;;23.03;;
66927;SDS011;59882;45.624;11.698;2023-12-14T00:49:58;45.00;;;25.48;;
66927;SDS011;59882;45.624;11.698;2023-12-14T00:52:24;46.50;;;25.30;;
66927;SDS011;59882;45.624;11.698;2023-12-14T00:54:49;39.92;;;22.75;;
66927;SDS011;59882;45.624;11.698;2023-12-14T00:57:15;32.30;;;20.50;;
66927;SDS011;59882;45.624;11.698;2023-12-14T00:59:41;29.40;;;21.60;;
66927;SDS011;59882;45.624;11.698;2023-12-14T01:02:06;31.40;;;20.67;;
66927;SDS011;59882;45.624;11.698;2023-12-14T01:04:32;33.47;;;21.27;;
66927;SDS011;59882;45.624;11.698;2023-12-14T01:06:58;33.13;;;20.45;;
66927;SDS011;59882;45.624;11.698;2023-12-14T01:09:23;30.67;;;19.67;;
66927;SDS011;59882;45.624;11.698;2023-12-14T01:11:49;29.38;;;19.38;;
66927;SDS011;59882;45.624;11.698;2023-12-14T01:14:15;30.73;;;18.40;;
66927;SDS011;59882;45.624;11.698;2023-12-14T01:16:40;29.15;;;18.95;;
66927;SDS011;59882;45.624;11.698;2023-12-14T01:19:06;27.10;;;18.33;;
66927;SDS011;59882;45.624;11.698;2023-12-14T01:21:32;21.65;;;16.73;;
66927;SDS011;59882;45.624;11.698;2023-12-14T01:23:58;24.77;;;17.37;;
66927;SDS011;59882;45.624;11.698;2023-12-14T01:26:25;21.40;;;16.40;;
66927;SDS011;59882;45.624;11.698;2023-12-14T01:28:52;19.73;;;15.60;;
66927;SDS011;59882;45.624;11.698;2023-12-14T01:31:18;21.83;;;16.15;;
66927;SDS011;59882;45.624;11.698;2023-12-14T01:33:44;21.30;;;15.85;;
66927;SDS011;59882;45.624;11.698;2023-12-14T01:36:11;31.03;;;15.37;;
66927;SDS011;59882;45.624;11.698;2023-12-14T01:38:36;23.45;;;15.63;;
66927;SDS011;59882;45.624;11.698;2023-12-14T01:41:02;72.88;;;18.75;;
66927;SDS011;59882;45.624;11.698;2023-12-14T01:43:28;45.00;;;16.80;;
66927;SDS011;59882;45.624;11.698;2023-12-14T01:45:54;68.23;;;16.10;;
66927;SDS011;59882;45.624;11.698;2023-12-14T01:48:20;69.13;;;15.97;;
66927;SDS011;59882;45.624;11.698;2023-12-14T01:50:46;35.67;;;14.90;;
66927;SDS011;59882;45.624;11.698;2023-12-14T01:53:12;72.38;;;15.32;;
66927;SDS011;59882;45.624;11.698;2023-12-14T01:55:37;35.80;;;13.33;;
66927;SDS011;59882;45.624;11.698;2023-12-14T01:58:03;24.40;;;13.50;;
66927;SDS011;59882;45.624;11.698;2023-12-14T02:00:43;32.38;;;13.35;;
66927;SDS011;59882;45.624;11.698;2023-12-14T02:03:15;23.70;;;13.32;;
66927;SDS011;59882;45.624;11.698;2023-12-14T02:05:41;18.73;;;13.07;;
66927;SDS011;59882;45.624;11.698;2023-12-14T02:08:07;15.93;;;12.67;;
66927;SDS011;59882;45.624;11.698;2023-12-14T02:10:33;14.85;;;11.98;;
66927;SDS011;59882;45.624;11.698;2023-12-14T02:13:00;16.33;;;12.53;;
66927;SDS011;59882;45.624;11.698;2023-12-14T02:15:29;15.35;;;11.63;;
66927;SDS011;59882;45.624;11.698;2023-12-14T02:17:55;17.60;;;12.85;;
66927;SDS011;59882;45.624;11.698;2023-12-14T02:20:21;33.40;;;15.77;;
66927;SDS011;59882;45.624;11.698;2023-12-14T02:22:56;38.55;;;15.85;;
66927;SDS011;59882;45.624;11.698;2023-12-14T02:25:22;22.52;;;14.82;;
66927;SDS011;59882;45.624;11.698;2023-12-14T02:27:49;28.60;;;14.52;;
66927;SDS011;59882;45.624;11.698;2023-12-14T02:30:16;22.27;;;13.35;;
66927;SDS011;59882;45.624;11.698;2023-12-14T02:32:42;52.90;;;13.80;;
66927;SDS011;59882;45.624;11.698;2023-12-14T02:35:08;23.88;;;13.55;;
66927;SDS011;59882;45.624;11.698;2023-12-14T02:37:34;52.50;;;15.23;;
66927;SDS011;59882;45.624;11.698;2023-12-14T02:40:05;53.38;;;15.25;;
66927;SDS011;59882;45.624;11.698;2023-12-14T02:42:31;32.75;;;14.82;;
66927;SDS011;59882;45.624;11.698;2023-12-14T02:44:57;19.92;;;13.23;;
66927;SDS011;59882;45.624;11.698;2023-12-14T02:47:23;45.50;;;14.90;;
66927;SDS011;59882;45.624;11.698;2023-12-14T02:49:49;25.27;;;12.50;;
66927;SDS011;59882;45.624;11.698;2023-12-14T02:52:14;16.20;;;11.23;;
66927;SDS011;59882;45.624;11.698;2023-12-14T02:54:40;17.50;;;11.27;;
66927;SDS011;59882;45.624;11.698;2023-12-14T02:57:06;29.63;;;13.53;;
66927;SDS011;59882;45.624;11.698;2023-12-14T02:59:31;18.58;;;13.40;;
66927;SDS011;59882;45.624;11.698;2023-12-14T03:01:57;25.47;;;12.93;;
66927;SDS011;59882;45.624;11.698;2023-12-14T03:04:23;17.27;;;12.77;;
66927;SDS011;59882;45.624;11.698;2023-12-14T03:06:49;48.50;;;15.97;;
66927;SDS011;59882;45.624;11.698;2023-12-14T03:09:14;31.30;;;17.02;;
66927;SDS011;59882;45.624;11.698;2023-12-14T03:11:40;23.90;;;15.37;;
66927;SDS011;59882;45.624;11.698;2023-12-14T03:14:05;23.40;;;14.48;;
66927;SDS011;59882;45.624;11.698;2023-12-14T03:16:31;22.17;;;14.60;;
66927;SDS011;59882;45.624;11.698;2023-12-14T03:18:57;21.73;;;14.23;;
66927;SDS011;59882;45.624;11.698;2023-12-14T03:21:23;20.23;;;14.55;;
66927;SDS011;59882;45.624;11.698;2023-12-14T03:23:48;19.30;;;14.30;;
66927;SDS011;59882;45.624;11.698;2023-12-14T03:26:14;21.83;;;14.47;;
66927;SDS011;59882;45.624;11.698;2023-12-14T03:28:40;25.60;;;14.68;;
66927;SDS011;59882;45.624;11.698;2023-12-14T03:31:06;24.50;;;14.70;;
66927;SDS011;59882;45.624;11.698;2023-12-14T03:33:32;21.85;;;14.38;;
66927;SDS011;59882;45.624;11.698;2023-12-14T03:35:57;29.67;;;14.53;;
66927;SDS011;59882;45.624;11.698;2023-12-14T03:38:24;35.43;;;15.40;;
66927;SDS011;59882;45.624;11.698;2023-12-14T03:40:50;24.70;;;14.18;;
66927;SDS011;59882;45.624;11.698;2023-12-14T03:43:15;19.23;;;13.33;;
66927;SDS011;59882;45.624;11.698;2023-12-14T03:45:41;21.33;;;14.32;;
66927;SDS011;59882;45.624;11.698;2023-12-14T03:48:07;23.97;;;14.63;;
66927;SDS011;59882;45.624;11.698;2023-12-14T03:50:32;27.08;;;14.45;;
66927;SDS011;59882;45.624;11.698;2023-12-14T03:52:58;22.87;;;13.90;;
66927;SDS011;59882;45.624;11.698;2023-12-14T03:55:24;31.58;;;14.50;;
66927;SDS011;59882;45.624;11.698;2023-12-14T03:57:50;27.27;;;14.53;;
66927;SDS011;59882;45.624;11.698;2023-12-14T04:00:15;26.70;;;14.65;;
66927;SDS011;59882;45.624;11.698;2023-12-14T04:02:41;21.27;;;13.80;;
66927;SDS011;59882;45.624;11.698;2023-12-14T04:05:07;26.35;;;12.85;;
66927;SDS011;59882;45.624;11.698;2023-12-14T04:07:37;27.45;;;13.25;;
66927;SDS011;59882;45.624;11.698;2023-12-14T04:10:08;22.00;;;14.57;;
66927;SDS011;59882;45.624;11.698;2023-12-14T04:12:35;21.33;;;13.63;;
66927;SDS011;59882;45.624;11.698;2023-12-14T04:15:01;17.93;;;12.70;;
66927;SDS011;59882;45.624;11.698;2023-12-14T04:17:27;19.85;;;13.45;;
66927;SDS011;59882;45.624;11.698;2023-12-14T04:19:53;20.38;;;13.25;;
66927;SDS011;59882;45.624;11.698;2023-12-14T04:22:18;18.90;;;12.30;;
66927;SDS011;59882;45.624;11.698;2023-12-14T04:24:44;34.20;;;14.30;;
66927;SDS011;59882;45.624;11.698;2023-12-14T04:27:09;18.57;;;13.40;;
66927;SDS011;59882;45.624;11.698;2023-12-14T04:29:35;19.90;;;13.60;;
66927;SDS011;59882;45.624;11.698;2023-12-14T04:32:01;22.08;;;14.00;;
66927;SDS011;59882;45.624;11.698;2023-12-14T04:34:26;22.53;;;16.53;;
66927;SDS011;59882;45.624;11.698;2023-12-14T04:36:52;21.52;;;14.20;;
66927;SDS011;59882;45.624;11.698;2023-12-14T04:39:22;20.17;;;13.50;;
66927;SDS011;59882;45.624;11.698;2023-12-14T04:41:49;18.95;;;13.88;;
66927;SDS011;59882;45.624;11.698;2023-12-14T04:44:15;25.17;;;15.50;;
66927;SDS011;59882;45.624;11.698;2023-12-14T04:46:41;23.48;;;14.50;;
66927;SDS011;59882;45.624;11.698;2023-12-14T04:49:07;28.37;;;14.47;;
66927;SDS011;59882;45.624;11.698;2023-12-14T04:51:33;23.77;;;14.90;;
66927;SDS011;59882;45.624;11.698;2023-12-14T04:53:58;24.80;;;14.03;;
66927;SDS011;59882;45.624;11.698;2023-12-14T04:56:24;24.13;;;14.07;;
66927;SDS011;59882;45.624;11.698;2023-12-14T04:58:49;18.27;;;13.53;;
66927;SDS011;59882;45.624;11.698;2023-12-14T05:01:15;19.17;;;13.43;;
66927;SDS011;59882;45.624;11.698;2023-12-14T05:03:41;16.77;;;12.95;;
66927;SDS011;59882;45.624;11.698;2023-12-14T05:06:06;19.50;;;12.87;;
66927;SDS011;59882;45.624;11.698;2023-12-14T05:08:32;16.33;;;12.38;;
66927;SDS011;59882;45.624;11.698;2023-12-14T05:10:58;15.17;;;11.97;;
66927;SDS011;59882;45.624;11.698;2023-12-14T05:13:24;17.58;;;12.50;;
66927;SDS011;59882;45.624;11.698;2023-12-14T05:15:50;21.20;;;13.25;;
66927;SDS011;59882;45.624;11.698;2023-12-14T05:18:16;17.77;;;13.33;;
66927;SDS011;59882;45.624;11.698;2023-12-14T05:20:43;27.00;;;14.38;;
66927;SDS011;59882;45.624;11.698;2023-12-14T05:23:10;31.50;;;14.35;;
66927;SDS011;59882;45.624;11.698;2023-12-14T05:25:36;19.90;;;13.98;;
66927;SDS011;59882;45.624;11.698;2023-12-14T05:28:02;19.97;;;13.73;;
66927;SDS011;59882;45.624;11.698;2023-12-14T05:30:28;21.30;;;13.90;;
66927;SDS011;59882;45.624;11.698;2023-12-14T05:32:54;17.00;;;12.90;;
66927;SDS011;59882;45.624;11.698;2023-12-14T05:35:19;15.93;;;13.27;;
66927;SDS011;59882;45.624;11.698;2023-12-14T05:37:45;14.37;;;12.43;;
66927;SDS011;59882;45.624;11.698;2023-12-14T05:40:11;20.50;;;14.23;;
66927;SDS011;59882;45.624;11.698;2023-12-14T05:42:37;43.40;;;28.05;;
66927;SDS011;59882;45.624;11.698;2023-12-14T05:45:03;46.07;;;31.90;;
66927;SDS011;59882;45.624;11.698;2023-12-14T05:47:32;30.05;;;18.67;;
66927;SDS011;59882;45.624;11.698;2023-12-14T05:49:59;26.40;;;17.38;;
66927;SDS011;59882;45.624;11.698;2023-12-14T05:52:25;29.95;;;18.23;;
66927;SDS011;59882;45.624;11.698;2023-12-14T05:54:51;39.83;;;18.13;;
66927;SDS011;59882;45.624;11.698;2023-12-14T05:57:16;33.28;;;17.55;;
66927;SDS011;59882;45.624;11.698;2023-12-14T05:59:42;32.10;;;15.40;;
66927;SDS011;59882;45.624;11.698;2023-12-14T06:02:08;20.85;;;14.80;;
66927;SDS011;59882;45.624;11.698;2023-12-14T06:04:34;22.17;;;13.30;;
66927;SDS011;59882;45.624;11.698;2023-12-14T06:07:00;23.42;;;13.55;;
66927;SDS011;59882;45.624;11.698;2023-12-14T06:09:25;18.25;;;13.20;;
66927;SDS011;59882;45.624;11.698;2023-12-14T06:12:00;21.93;;;13.23;;
66927;SDS011;59882;45.624;11.698;2023-12-14T06:14:26;21.00;;;13.60;;
66927;SDS011;59882;45.624;11.698;2023-12-14T06:16:55;17.77;;;13.25;;
66927;SDS011;59882;45.624;11.698;2023-12-14T06:19:21;18.85;;;12.98;;
66927;SDS011;59882;45.624;11.698;2023-12-14T06:21:47;19.33;;;12.87;;
66927;SDS011;59882;45.624;11.698;2023-12-14T06:24:13;22.20;;;14.27;;
66927;SDS011;59882;45.624;11.698;2023-12-14T06:26:42;22.15;;;14.88;;
66927;SDS011;59882;45.624;11.698;2023-12-14T06:29:08;17.55;;;14.18;;
66927;SDS011;59882;45.624;11.698;2023-12-14T06:31:39;20.13;;;15.52;;
66927;SDS011;59882;45.624;11.698;2023-12-14T06:34:05;15.83;;;12.63;;
66927;SDS011;59882;45.624;11.698;2023-12-14T06:36:31;17.25;;;12.77;;
66927;SDS011;59882;45.624;11.698;2023-12-14T06:39:00;18.15;;;14.27;;
66927;SDS011;59882;45.624;11.698;2023-12-14T06:41:28;17.17;;;13.38;;
66927;SDS011;59882;45.624;11.698;2023-12-14T06:43:54;23.17;;;16.23;;
66927;SDS011;59882;45.624;11.698;2023-12-14T06:46:20;26.43;;;18.10;;
66927;SDS011;59882;45.624;11.698;2023-12-14T06:48:46;35.00;;;25.75;;
66927;SDS011;59882;45.624;11.698;2023-12-14T06:51:12;61.67;;;41.95;;
66927;SDS011;59882;45.624;11.698;2023-12-14T06:53:42;31.48;;;23.08;;
66927;SDS011;59882;45.624;11.698;2023-12-14T06:56:08;36.40;;;23.63;;
66927;SDS011;59882;45.624;11.698;2023-12-14T06:58:36;136.75;;;100.47;;
66927;SDS011;59882;45.624;11.698;2023-12-14T07:01:02;38.00;;;27.98;;
66927;SDS011;59882;45.624;11.698;2023-12-14T07:03:28;31.13;;;23.08;;
66927;SDS011;59882;45.624;11.698;2023-12-14T07:05:53;30.67;;;23.67;;
66927;SDS011;59882;45.624;11.698;2023-12-14T07:08:19;40.40;;;29.90;;
66927;SDS011;59882;45.624;11.698;2023-12-14T07:10:44;42.60;;;33.70;;
66927;SDS011;59882;45.624;11.698;2023-12-14T07:13:10;53.30;;;34.37;;
66927;SDS011;59882;45.624;11.698;2023-12-14T07:15:36;166.68;;;91.30;;
66927;SDS011;59882;45.624;11.698;2023-12-14T07:18:01;98.73;;;54.23;;
66927;SDS011;59882;45.624;11.698;2023-12-14T07:20:27;76.35;;;38.05;;
66927;SDS011;59882;45.624;11.698;2023-12-14T07:22:53;61.60;;;33.87;;
66927;SDS011;59882;45.624;11.698;2023-12-14T07:25:18;77.07;;;37.70;;
66927;SDS011;59882;45.624;11.698;2023-12-14T07:27:44;75.50;;;34.08;;
66927;SDS011;59882;45.624;11.698;2023-12-14T07:30:11;69.93;;;33.60;;
66927;SDS011;59882;45.624;11.698;2023-12-14T07:32:37;68.70;;;33.20;;
66927;SDS011;59882;45.624;11.698;2023-12-14T07:35:03;55.90;;;30.27;;
66927;SDS011;59882;45.624;11.698;2023-12-14T07:37:30;48.22;;;24.70;;
66927;SDS011;59882;45.624;11.698;2023-12-14T07:39:56;49.60;;;23.37;;
66927;SDS011;59882;45.624;11.698;2023-12-14T07:42:22;50.80;;;21.73;;
66927;SDS011;59882;45.624;11.698;2023-12-14T07:44:48;42.38;;;21.17;;
66927;SDS011;59882;45.624;11.698;2023-12-14T07:47:14;53.03;;;20.03;;
66927;SDS011;59882;45.624;11.698;2023-12-14T07:49:39;45.73;;;24.63;;
66927;SDS011;59882;45.624;11.698;2023-12-14T07:52:05;40.15;;;25.67;;
66927;SDS011;59882;45.624;11.698;2023-12-14T07:54:31;40.30;;;22.67;;
66927;SDS011;59882;45.624;11.698;2023-12-14T07:56:57;29.30;;;20.50;;
66927;SDS011;59882;45.624;11.698;2023-12-14T07:59:22;27.45;;;20.17;;
66927;SDS011;59882;45.624;11.698;2023-12-14T08:01:48;29.30;;;18.50;;
66927;SDS011;59882;45.624;11.698;2023-12-14T08:04:14;29.47;;;16.47;;
66927;SDS011;59882;45.624;11.698;2023-12-14T08:06:40;38.65;;;16.83;;
66927;SDS011;59882;45.624;11.698;2023-12-14T08:09:05;37.15;;;16.73;;
66927;SDS011;59882;45.624;11.698;2023-12-14T08:11:32;41.13;;;16.50;;
66927;SDS011;59882;45.624;11.698;2023-12-14T08:13:58;37.85;;;16.83;;
66927;SDS011;59882;45.624;11.698;2023-12-14T08:16:23;26.15;;;15.23;;
66927;SDS011;59882;45.624;11.698;2023-12-14T08:18:49;40.77;;;16.53;;
66927;SDS011;59882;45.624;11.698;2023-12-14T08:21:15;52.97;;;16.93;;
66927;SDS011;59882;45.624;11.698;2023-12-14T08:23:41;41.88;;;17.85;;
66927;SDS011;59882;45.624;11.698;2023-12-14T08:26:07;32.28;;;17.48;;
66927;SDS011;59882;45.624;11.698;2023-12-14T08:28:35;70.85;;;21.88;;
66927;SDS011;59882;45.624;11.698;2023-12-14T08:31:00;69.53;;;20.93;;
66927;SDS011;59882;45.624;11.698;2023-12-14T08:33:28;43.58;;;20.08;;
66927;SDS011;59882;45.624;11.698;2023-12-14T08:35:54;31.20;;;17.58;;
66927;SDS011;59882;45.624;11.698;2023-12-14T08:38:20;27.15;;;17.10;;
66927;SDS011;59882;45.624;11.698;2023-12-14T08:40:46;28.37;;;17.70;;
66927;SDS011;59882;45.624;11.698;2023-12-14T08:43:12;29.35;;;18.40;;
66927;SDS011;59882;45.624;11.698;2023-12-14T08:45:37;43.73;;;19.97;;
66927;SDS011;59882;45.624;11.698;2023-12-14T08:48:03;38.28;;;18.35;;
66927;SDS011;59882;45.624;11.698;2023-12-14T08:50:29;43.23;;;20.23;;
66927;SDS011;59882;45.624;11.698;2023-12-14T08:52:55;47.60;;;21.35;;
66927;SDS011;59882;45.624;11.698;2023-12-14T08:55:23;65.40;;;21.65;;
66927;SDS011;59882;45.624;11.698;2023-12-14T08:57:49;47.50;;;23.93;;
66927;SDS011;59882;45.624;11.698;2023-12-14T09:00:15;80.97;;;23.55;;
66927;SDS011;59882;45.624;11.698;2023-12-14T09:02:42;86.00;;;23.77;;
66927;SDS011;59882;45.624;11.698;2023-12-14T09:05:11;49.63;;;22.70;;
66927;SDS011;59882;45.624;11.698;2023-12-14T09:07:37;37.05;;;21.40;;
66927;SDS011;59882;45.624;11.698;2023-12-14T09:10:03;29.57;;;19.83;;
66927;SDS011;59882;45.624;11.698;2023-12-14T09:12:29;32.30;;;20.52;;
66927;SDS011;59882;45.624;11.698;2023-12-14T09:14:55;48.70;;;21.52;;
66927;SDS011;59882;45.624;11.698;2023-12-14T09:17:21;40.67;;;20.10;;
66927;SDS011;59882;45.624;11.698;2023-12-14T09:19:55;30.58;;;20.55;;
66927;SDS011;59882;45.624;11.698;2023-12-14T09:22:20;29.33;;;20.25;;
66927;SDS011;59882;45.624;11.698;2023-12-14T09:24:46;28.93;;;20.17;;
66927;SDS011;59882;45.624;11.698;2023-12-14T09:27:12;36.95;;;21.13;;
66927;SDS011;59882;45.624;11.698;2023-12-14T09:29:37;30.97;;;19.50;;
66927;SDS011;59882;45.624;11.698;2023-12-14T09:32:03;27.90;;;18.60;;
66927;SDS011;59882;45.624;11.698;2023-12-14T09:34:29;26.47;;;17.70;;
66927;SDS011;59882;45.624;11.698;2023-12-14T09:36:55;31.98;;;18.92;;
66927;SDS011;59882;45.624;11.698;2023-12-14T09:39:20;26.10;;;17.13;;
66927;SDS011;59882;45.624;11.698;2023-12-14T09:41:47;26.98;;;16.75;;
66927;SDS011;59882;45.624;11.698;2023-12-14T09:44:15;28.25;;;16.55;;
66927;SDS011;59882;45.624;11.698;2023-12-14T09:46:40;26.77;;;16.83;;
66927;SDS011;59882;45.624;11.698;2023-12-14T09:49:11;25.20;;;16.33;;
66927;SDS011;59882;45.624;11.698;2023-12-14T09:51:38;22.83;;;16.52;;
66927;SDS011;59882;45.624;11.698;2023-12-14T09:54:05;24.60;;;16.90;;
66927;SDS011;59882;45.624;11.698;2023-12-14T09:56:31;23.00;;;17.07;;
66927;SDS011;59882;45.624;11.698;2023-12-14T09:58:57;23.17;;;16.98;;
66927;SDS011;59882;45.624;11.698;2023-12-14T10:01:26;24.85;;;17.15;;
66927;SDS011;59882;45.624;11.698;2023-12-14T10:06:41;30.88;;;20.35;;
66927;SDS011;59882;45.624;11.698;2023-12-14T10:09:08;25.63;;;18.48;;
66927;SDS011;59882;45.624;11.698;2023-12-14T10:11:38;24.05;;;17.60;;
66927;SDS011;59882;45.624;11.698;2023-12-14T10:14:20;23.33;;;16.88;;
66927;SDS011;59882;45.624;11.698;2023-12-14T10:16:49;23.63;;;17.43;;
66927;SDS011;59882;45.624;11.698;2023-12-14T10:19:16;23.50;;;17.17;;
66927;SDS011;59882;45.624;11.698;2023-12-14T10:21:48;23.00;;;16.70;;
66927;SDS011;59882;45.624;11.698;2023-12-14T10:24:15;22.63;;;16.25;;
66927;SDS011;59882;45.624;11.698;2023-12-14T10:26:44;23.20;;;17.02;;
66927;SDS011;59882;45.624;11.698;2023-12-14T10:29:10;19.80;;;15.57;;
66927;SDS011;59882;45.624;11.698;2023-12-14T10:31:36;23.48;;;16.85;;
66927;SDS011;59882;45.624;11.698;2023-12-14T10:34:06;23.20;;;16.92;;
66927;SDS011;59882;45.624;11.698;2023-12-14T10:36:32;23.20;;;15.30;;
66927;SDS011;59882;45.624;11.698;2023-12-14T10:38:58;20.35;;;15.63;;
66927;SDS011;59882;45.624;11.698;2023-12-14T10:41:25;21.23;;;14.85;;
66927;SDS011;59882;45.624;11.698;2023-12-14T10:43:53;18.58;;;13.95;;
66927;SDS011;59882;45.624;11.698;2023-12-14T10:46:20;21.10;;;14.77;;
66927;SDS011;59882;45.624;11.698;2023-12-14T10:48:49;20.03;;;15.37;;
66927;SDS011;59882;45.624;11.698;2023-12-14T10:51:16;21.77;;;15.77;;
66927;SDS011;59882;45.624;11.698;2023-12-14T10:53:44;17.88;;;13.27;;
66927;SDS011;59882;45.624;11.698;2023-12-14T10:56:13;17.50;;;13.50;;
66927;SDS011;59882;45.624;11.698;2023-12-14T10:58:50;19.37;;;14.60;;
66927;SDS011;59882;45.624;11.698;2023-12-14T11:01:24;18.50;;;14.57;;
66927;SDS011;59882;45.624;11.698;2023-12-14T11:03:50;20.77;;;15.30;;
66927;SDS011;59882;45.624;11.698;2023-12-14T11:06:20;20.67;;;13.73;;
66927;SDS011;59882;45.624;11.698;2023-12-14T11:08:51;21.23;;;15.35;;
66927;SDS011;59882;45.624;11.698;2023-12-14T11:11:17;21.70;;;15.47;;
66927;SDS011;59882;45.624;11.698;2023-12-14T11:13:54;21.60;;;14.98;;
66927;SDS011;59882;45.624;11.698;2023-12-14T11:16:21;19.98;;;15.07;;
66927;SDS011;59882;45.624;11.698;2023-12-14T11:18:47;23.13;;;17.13;;
66927;SDS011;59882;45.624;11.698;2023-12-14T11:21:19;20.50;;;14.95;;
66927;SDS011;59882;45.624;11.698;2023-12-14T11:23:50;21.50;;;15.43;;
66927;SDS011;59882;45.624;11.698;2023-12-14T11:26:20;22.60;;;15.57;;
66927;SDS011;59882;45.624;11.698;2023-12-14T11:28:47;22.45;;;15.68;;
66927;SDS011;59882;45.624;11.698;2023-12-14T11:31:13;26.25;;;17.58;;
66927;SDS011;59882;45.624;11.698;2023-12-14T11:33:39;24.73;;;16.87;;
66927;SDS011;59882;45.624;11.698;2023-12-14T11:36:05;24.15;;;17.42;;
66927;SDS011;59882;45.624;11.698;2023-12-14T11:38:31;28.77;;;19.77;;
66927;SDS011;59882;45.624;11.698;2023-12-14T11:41:00;29.63;;;19.98;;
66927;SDS011;59882;45.624;11.698;2023-12-14T11:43:26;31.17;;;21.40;;
66927;SDS011;59882;45.624;11.698;2023-12-14T11:45:51;27.83;;;19.47;;
66927;SDS011;59882;45.624;11.698;2023-12-14T11:48:19;28.13;;;20.20;;
66927;SDS011;59882;45.624;11.698;2023-12-14T11:50:46;27.58;;;19.92;;
66927;SDS011;59882;45.624;11.698;2023-12-14T11:53:12;28.58;;;18.77;;
66927;SDS011;59882;45.624;11.698;2023-12-14T11:55:39;29.15;;;18.92;;
66927;SDS011;59882;45.624;11.698;2023-12-14T11:58:06;24.47;;;17.43;;
66927;SDS011;59882;45.624;11.698;2023-12-14T12:00:33;29.48;;;18.65;;
66927;SDS011;59882;45.624;11.698;2023-12-14T12:03:18;24.25;;;16.50;;
66927;SDS011;59882;45.624;11.698;2023-12-14T12:05:46;23.80;;;15.88;;
66927;SDS011;59882;45.624;11.698;2023-12-14T12:08:14;24.75;;;17.52;;
66927;SDS011;59882;45.624;11.698;2023-12-14T12:10:42;25.47;;;17.60;;
66927;SDS011;59882;45.624;11.698;2023-12-14T12:13:12;22.35;;;16.10;;
66927;SDS011;59882;45.624;11.698;2023-12-14T12:15:39;23.95;;;16.98;;
66927;SDS011;59882;45.624;11.698;2023-12-14T12:18:15;21.10;;;16.13;;
66927;SDS011;59882;45.624;11.698;2023-12-14T12:20:41;21.67;;;15.80;;
66927;SDS011;59882;45.624;11.698;2023-12-14T12:23:07;22.77;;;17.45;;
66927;SDS011;59882;45.624;11.698;2023-12-14T12:25:33;23.00;;;17.03;;
66927;SDS011;59882;45.624;11.698;2023-12-14T12:27:59;20.00;;;14.98;;
66927;SDS011;59882;45.624;11.698;2023-12-14T12:30:26;19.25;;;14.35;;
66927;SDS011;59882;45.624;11.698;2023-12-14T12:32:52;19.20;;;14.65;;
66927;SDS011;59882;45.624;11.698;2023-12-14T12:35:20;17.53;;;13.43;;
66927;SDS011;59882;45.624;11.698;2023-12-14T12:37:46;17.10;;;13.18;;
66927;SDS011;59882;45.624;11.698;2023-12-14T12:40:12;18.17;;;14.43;;
66927;SDS011;59882;45.624;11.698;2023-12-14T12:42:41;17.00;;;12.57;;
66927;SDS011;59882;45.624;11.698;2023-12-14T12:45:06;16.40;;;13.30;;
66927;SDS011;59882;45.624;11.698;2023-12-14T12:47:32;15.57;;;13.43;;
66927;SDS011;59882;45.624;11.698;2023-12-14T12:49:58;17.73;;;15.07;;
66927;SDS011;59882;45.624;11.698;2023-12-14T12:52:23;16.90;;;14.43;;
66927;SDS011;59882;45.624;11.698;2023-12-14T12:54:49;14.80;;;12.73;;
66927;SDS011;59882;45.624;11.698;2023-12-14T12:57:15;16.80;;;14.30;;
66927;SDS011;59882;45.624;11.698;2023-12-14T12:59:40;14.40;;;12.23;;
66927;SDS011;59882;45.624;11.698;2023-12-14T13:02:06;15.10;;;12.60;;
66927;SDS011;59882;45.624;11.698;2023-12-14T13:04:31;16.38;;;13.55;;
66927;SDS011;59882;45.624;11.698;2023-12-14T13:06:57;15.77;;;12.93;;
66927;SDS011;59882;45.624;11.698;2023-12-14T13:09:27;15.60;;;13.07;;
66927;SDS011;59882;45.624;11.698;2023-12-14T13:11:52;14.85;;;12.40;;
66927;SDS011;59882;45.624;11.698;2023-12-14T13:14:18;16.00;;;13.13;;
66927;SDS011;59882;45.624;11.698;2023-12-14T13:16:43;16.10;;;13.23;;
66927;SDS011;59882;45.624;11.698;2023-12-14T13:19:09;14.17;;;12.20;;
66927;SDS011;59882;45.624;11.698;2023-12-14T13:21:35;16.20;;;13.20;;
66927;SDS011;59882;45.624;11.698;2023-12-14T13:24:01;16.33;;;13.93;;
66927;SDS011;59882;45.624;11.698;2023-12-14T13:26:27;17.50;;;13.55;;
66927;SDS011;59882;45.624;11.698;2023-12-14T13:28:53;20.40;;;14.95;;
66927;SDS011;59882;45.624;11.698;2023-12-14T13:31:19;20.75;;;16.40;;
66927;SDS011;59882;45.624;11.698;2023-12-14T13:33:45;20.03;;;14.87;;
66927;SDS011;59882;45.624;11.698;2023-12-14T13:36:11;20.08;;;16.58;;
66927;SDS011;59882;45.624;11.698;2023-12-14T13:38:38;17.77;;;13.55;;
66927;SDS011;59882;45.624;11.698;2023-12-14T13:41:03;18.95;;;14.43;;
66927;SDS011;59882;45.624;11.698;2023-12-14T13:43:29;21.27;;;15.80;;
66927;SDS011;59882;45.624;11.698;2023-12-14T13:45:55;25.33;;;16.67;;
66927;SDS011;59882;45.624;11.698;2023-12-14T13:48:24;19.87;;;15.27;;
66927;SDS011;59882;45.624;11.698;2023-12-14T13:50:51;28.35;;;15.60;;
66927;SDS011;59882;45.624;11.698;2023-12-14T13:53:17;22.02;;;16.48;;
66927;SDS011;59882;45.624;11.698;2023-12-14T13:55:42;26.03;;;19.07;;
66927;SDS011;59882;45.624;11.698;2023-12-14T13:58:08;23.30;;;16.40;;
66927;SDS011;59882;45.624;11.698;2023-12-14T14:00:33;23.90;;;17.73;;
66927;SDS011;59882;45.624;11.698;2023-12-14T14:03:02;27.05;;;19.27;;
66927;SDS011;59882;45.624;11.698;2023-12-14T14:05:29;32.10;;;18.92;;
66927;SDS011;59882;45.624;11.698;2023-12-14T14:07:56;25.17;;;17.13;;